Time,TemperatureF,DewpointF,PressureIn,WindDirection,WindDirectionDegrees,WindSpeedMPH,WindSpeedGustMPH,Humidity,HourlyPrecipIn,Conditions,Clouds,dailyrainin,SoftwareType,DateUTC
2013-07-15 00:01:00,66.4,57.1,0.00,SSE,163,0.0,0.0,72,0.00,,,0.00,VWS V13.01,2013-07-15 05:01:00,
2013-07-15 00:06:00,66.4,57.1,0.00,SSE,163,0.0,0.0,72,0.00,,,0.00,VWS V13.01,2013-07-15 05:06:00,
2013-07-15 00:11:00,66.2,56.9,0.00,SSE,163,0.0,0.0,72,0.00,,,0.00,VWS V13.01,2013-07-15 05:11:00,
2013-07-15 00:16:00,66.2,57.3,0.00,SSE,163,0.0,0.0,73,0.00,,,0.00,VWS V13.01,2013-07-15 05:16:00,
2013-07-15 00:21:00,66.2,57.3,0.00,SSE,163,0.0,0.0,73,0.00,,,0.00,VWS V13.01,2013-07-15 05:21:00,
2013-07-15 00:26:00,66.0,57.5,0.00,SSE,163,0.0,0.0,74,0.00,,,0.00,VWS V13.01,2013-07-15 05:26:00,
2013-07-15 00:31:00,65.8,57.3,0.00,SSE,163,0.0,0.0,74,0.00,,,0.00,VWS V13.01,2013-07-15 05:31:00,
2013-07-15 00:36:00,65.8,57.3,0.00,SSE,163,0.0,0.0,74,0.00,,,0.00,VWS V13.01,2013-07-15 05:36:00,
2013-07-15 00:41:00,65.5,57.0,0.00,SSE,163,0.0,0.0,74,0.00,,,0.00,VWS V13.01,2013-07-15 05:41:00,
2013-07-15 00:46:00,65.3,56.8,0.00,SSE,163,0.0,0.0,74,0.00,,,0.00,VWS V13.01,2013-07-15 05:46:00,
2013-07-15 00:51:00,65.3,57.2,0.00,SSE,163,0.0,0.0,75,0.00,,,0.00,VWS V13.01,2013-07-15 05:51:00,
2013-07-15 00:56:00,65.3,57.2,0.00,SSE,163,0.0,0.0,75,0.00,,,0.00,VWS V13.01,2013-07-15 05:56:00,
2013-07-15 01:01:00,65.3,56.8,0.00,SSE,163,0.0,0.0,74,0.00,,,0.00,VWS V13.01,2013-07-15 06:01:00,
2013-07-15 01:06:00,65.3,57.2,0.00,SSE,163,0.0,0.0,75,0.00,,,0.00,VWS V13.01,2013-07-15 06:06:00,
2013-07-15 01:11:00,65.3,57.2,0.00,SSE,163,0.0,0.0,75,0.00,,,0.00,VWS V13.01,2013-07-15 06:11:00,
2013-07-15 01:16:00,65.1,57.0,0.00,SSE,163,0.0,0.0,75,0.00,,,0.00,VWS V13.01,2013-07-15 06:16:00,
2013-07-15 01:21:00,65.1,57.0,0.00,SSE,163,0.0,0.0,75,0.00,,,0.00,VWS V13.01,2013-07-15 06:21:00,
2013-07-15 01:26:00,64.9,57.2,0.00,SSE,163,0.0,0.0,76,0.00,,,0.00,VWS V13.01,2013-07-15 06:26:00,
2013-07-15 01:31:00,65.1,57.7,0.00,SSE,163,0.0,0.0,77,0.00,,,0.00,VWS V13.01,2013-07-15 06:31:00,
2013-07-15 01:36:00,65.1,57.7,0.00,SSE,163,0.0,0.0,77,0.00,,,0.00,VWS V13.01,2013-07-15 06:36:00,
2013-07-15 01:41:00,64.9,57.2,0.00,SSE,163,0.0,0.0,76,0.00,,,0.00,VWS V13.01,2013-07-15 06:41:00,
2013-07-15 01:46:00,65.1,57.4,0.00,SSE,163,0.0,0.0,76,0.00,,,0.00,VWS V13.01,2013-07-15 06:46:00,
2013-07-15 01:51:00,65.1,57.7,0.00,SSE,163,0.0,0.0,77,0.00,,,0.00,VWS V13.01,2013-07-15 06:51:00,
2013-07-15 01:56:00,65.1,57.7,0.00,SSE,163,0.0,0.0,77,0.00,,,0.00,VWS V13.01,2013-07-15 06:56:00,
2013-07-15 02:01:00,64.8,57.4,0.00,SSE,163,0.0,0.0,77,0.00,,,0.00,VWS V13.01,2013-07-15 07:01:00,
2013-07-15 02:06:00,64.6,57.2,0.00,SSE,163,0.0,0.0,77,0.00,,,0.00,VWS V13.01,2013-07-15 07:06:00,
2013-07-15 02:11:00,64.4,57.0,0.00,SSE,163,0.0,0.0,77,0.00,,,0.00,VWS V13.01,2013-07-15 07:11:00,
2013-07-15 02:16:00,64.4,57.4,0.00,SSE,163,0.0,0.0,78,0.00,,,0.00,VWS V13.01,2013-07-15 07:16:00,
2013-07-15 02:21:00,64.2,56.9,0.00,SSE,163,0.0,0.0,77,0.00,,,0.00,VWS V13.01,2013-07-15 07:21:00,
2013-07-15 02:26:00,64.2,57.2,0.00,SSE,163,0.0,0.0,78,0.00,,,0.00,VWS V13.01,2013-07-15 07:26:00,
2013-07-15 02:31:00,64.6,57.6,0.00,SSE,163,0.0,0.0,78,0.00,,,0.00,VWS V13.01,2013-07-15 07:31:00,
2013-07-15 02:36:00,64.9,57.9,0.00,SSE,163,0.0,0.0,78,0.00,,,0.00,VWS V13.01,2013-07-15 07:36:00,
2013-07-15 02:41:00,64.9,57.6,0.00,SSE,163,0.0,0.0,77,0.00,,,0.00,VWS V13.01,2013-07-15 07:41:00,
2013-07-15 02:46:00,64.6,56.8,0.00,SSE,163,0.0,0.0,76,0.00,,,0.00,VWS V13.01,2013-07-15 07:46:00,
2013-07-15 02:51:00,64.2,56.9,0.00,SSE,163,0.0,0.0,77,0.00,,,0.00,VWS V13.01,2013-07-15 07:51:00,
2013-07-15 02:56:00,64.0,57.0,0.00,SSE,163,0.0,0.0,78,0.00,,,0.00,VWS V13.01,2013-07-15 07:56:00,
2013-07-15 03:01:00,63.9,56.9,0.00,SSE,163,0.0,0.0,78,0.00,,,0.00,VWS V13.01,2013-07-15 08:01:00,
2013-07-15 03:06:00,63.7,56.7,0.00,SSE,163,0.0,0.0,78,0.00,,,0.00,VWS V13.01,2013-07-15 08:06:00,
2013-07-15 03:11:00,63.5,56.5,0.00,SSE,163,0.0,0.0,78,0.00,,,0.00,VWS V13.01,2013-07-15 08:11:00,
2013-07-15 03:16:00,63.5,56.5,0.00,SSE,163,0.0,0.0,78,0.00,,,0.00,VWS V13.01,2013-07-15 08:16:00,
2013-07-15 03:21:00,63.5,56.9,0.00,SSE,163,0.0,0.0,79,0.00,,,0.00,VWS V13.01,2013-07-15 08:21:00,
2013-07-15 03:26:00,63.3,56.7,0.00,SSE,163,0.0,0.0,79,0.00,,,0.00,VWS V13.01,2013-07-15 08:26:00,
2013-07-15 03:31:00,63.3,56.7,0.00,SSE,163,0.0,0.0,79,0.00,,,0.00,VWS V13.01,2013-07-15 08:31:00,
2013-07-15 03:36:00,63.9,57.2,0.00,SSE,163,0.0,0.0,79,0.00,,,0.00,VWS V13.01,2013-07-15 08:36:00,
2013-07-15 03:41:00,63.7,57.0,0.00,SSE,163,0.0,0.0,79,0.00,,,0.00,VWS V13.01,2013-07-15 08:41:00,
2013-07-15 03:46:00,63.3,56.3,0.00,SSE,163,0.0,0.0,78,0.00,,,0.00,VWS V13.01,2013-07-15 08:46:00,
2013-07-15 03:51:00,63.0,56.0,0.00,SSE,163,0.0,0.0,78,0.00,,,0.00,VWS V13.01,2013-07-15 08:51:00,
2013-07-15 03:56:00,63.3,56.7,0.00,SSE,163,0.0,0.0,79,0.00,,,0.00,VWS V13.01,2013-07-15 08:56:00,
2013-07-15 04:01:00,63.1,56.5,0.00,SSE,163,0.0,0.0,79,0.00,,,0.00,VWS V13.01,2013-07-15 09:01:00,
2013-07-15 04:06:00,62.8,55.8,0.00,SSE,163,0.0,0.0,78,0.00,,,0.00,VWS V13.01,2013-07-15 09:06:00,
2013-07-15 04:11:00,62.8,56.2,0.00,SSE,163,0.0,0.0,79,0.00,,,0.00,VWS V13.01,2013-07-15 09:11:00,
2013-07-15 04:16:00,63.1,56.5,0.00,SSE,163,0.0,0.0,79,0.00,,,0.00,VWS V13.01,2013-07-15 09:16:00,
2013-07-15 04:21:00,63.0,56.3,0.00,SSE,163,0.0,0.0,79,0.00,,,0.00,VWS V13.01,2013-07-15 09:21:00,
2013-07-15 04:26:00,62.6,55.7,0.00,SSE,163,0.0,0.0,78,0.00,,,0.00,VWS V13.01,2013-07-15 09:26:00,
2013-07-15 04:31:00,62.4,55.8,0.00,SSE,163,0.0,0.0,79,0.00,,,0.00,VWS V13.01,2013-07-15 09:31:00,
2013-07-15 04:36:00,62.2,55.7,0.00,SSE,163,0.0,0.0,79,0.00,,,0.00,VWS V13.01,2013-07-15 09:36:00,
2013-07-15 04:41:00,62.2,55.7,0.00,SSE,163,0.0,0.0,79,0.00,,,0.00,VWS V13.01,2013-07-15 09:41:00,
2013-07-15 04:46:00,62.2,55.7,0.00,SSE,163,0.0,0.0,79,0.00,,,0.00,VWS V13.01,2013-07-15 09:46:00,
2013-07-15 04:51:00,62.2,55.7,0.00,SSE,163,0.0,0.0,79,0.00,,,0.00,VWS V13.01,2013-07-15 09:51:00,
2013-07-15 04:57:00,62.1,55.5,0.00,SSE,163,0.0,0.0,79,0.00,,,0.00,VWS V13.01,2013-07-15 09:57:00,
2013-07-15 05:02:00,62.1,55.5,0.00,SSE,163,0.0,0.0,79,0.00,,,0.00,VWS V13.01,2013-07-15 10:02:00,
2013-07-15 05:07:00,62.2,56.0,0.00,SSE,163,0.0,0.0,80,0.00,,,0.00,VWS V13.01,2013-07-15 10:07:00,
2013-07-15 05:12:00,61.9,55.3,0.00,SSE,163,0.0,0.0,79,0.00,,,0.00,VWS V13.01,2013-07-15 10:12:00,
2013-07-15 05:17:00,61.9,55.3,0.00,SSE,163,0.0,0.0,79,0.00,,,0.00,VWS V13.01,2013-07-15 10:17:00,
2013-07-15 05:22:00,61.7,55.1,0.00,SSE,163,0.0,0.0,79,0.00,,,0.00,VWS V13.01,2013-07-15 10:22:00,
2013-07-15 05:27:00,61.7,55.5,0.00,SSE,163,0.0,0.0,80,0.00,,,0.00,VWS V13.01,2013-07-15 10:27:00,
2013-07-15 05:32:00,62.1,55.8,0.00,SSE,163,0.0,0.0,80,0.00,,,0.00,VWS V13.01,2013-07-15 10:32:00,
2013-07-15 05:37:00,61.7,55.5,0.00,SSE,163,0.0,0.0,80,0.00,,,0.00,VWS V13.01,2013-07-15 10:37:00,
2013-07-15 05:42:00,61.5,55.3,0.00,SSE,163,0.0,0.0,80,0.00,,,0.00,VWS V13.01,2013-07-15 10:42:00,
2013-07-15 05:46:00,61.7,55.5,0.00,SSE,163,0.0,0.0,80,0.00,,,0.00,VWS V13.01,2013-07-15 10:46:00,
2013-07-15 05:51:00,61.9,56.0,0.00,SSE,163,0.0,0.0,81,0.00,,,0.00,VWS V13.01,2013-07-15 10:51:00,
2013-07-15 05:56:00,61.7,55.5,0.00,SSE,163,0.0,0.0,80,0.00,,,0.00,VWS V13.01,2013-07-15 10:56:00,
2013-07-15 06:01:00,61.7,55.5,0.00,SSE,163,0.0,0.0,80,0.00,,,0.00,VWS V13.01,2013-07-15 11:01:00,
2013-07-15 06:06:00,62.1,56.2,0.00,SSE,163,0.0,0.0,81,0.00,,,0.00,VWS V13.01,2013-07-15 11:06:00,
2013-07-15 06:11:00,62.2,56.3,0.00,SSE,163,0.0,0.0,81,0.00,,,0.00,VWS V13.01,2013-07-15 11:11:00,
2013-07-15 06:16:00,62.2,56.3,0.00,SSE,163,0.0,0.0,81,0.00,,,0.00,VWS V13.01,2013-07-15 11:16:00,
2013-07-15 06:22:00,62.4,56.5,0.00,SSE,163,0.0,0.0,81,0.00,,,0.00,VWS V13.01,2013-07-15 11:22:00,
2013-07-15 06:27:00,62.8,56.9,0.00,SSE,163,0.0,0.0,81,0.00,,,0.00,VWS V13.01,2013-07-15 11:27:00,
2013-07-15 06:32:00,63.0,57.0,0.00,SSE,163,0.0,0.0,81,0.00,,,0.00,VWS V13.01,2013-07-15 11:32:00,
2013-07-15 06:37:00,63.1,57.2,0.00,SSE,163,0.0,0.0,81,0.00,,,0.00,VWS V13.01,2013-07-15 11:37:00,
2013-07-15 06:42:00,63.1,57.2,0.00,SSE,163,0.0,0.0,81,0.00,,,0.00,VWS V13.01,2013-07-15 11:42:00,
2013-07-15 06:47:00,63.3,57.4,0.00,SSE,163,0.0,0.0,81,0.00,,,0.00,VWS V13.01,2013-07-15 11:47:00,
2013-07-15 06:52:00,63.5,57.6,0.00,SSE,163,0.0,0.0,81,0.00,,,0.00,VWS V13.01,2013-07-15 11:52:00,
2013-07-15 06:57:00,63.5,57.6,0.00,SSE,163,0.0,0.0,81,0.00,,,0.00,VWS V13.01,2013-07-15 11:57:00,
2013-07-15 07:02:00,63.7,57.8,0.00,SSE,163,0.0,0.0,81,0.00,,,0.00,VWS V13.01,2013-07-15 12:02:00,
2013-07-15 07:07:00,63.7,57.8,0.00,SSE,163,0.0,0.0,81,0.00,,,0.00,VWS V13.01,2013-07-15 12:07:00,
2013-07-15 07:12:00,64.0,58.1,0.00,SSE,163,0.0,0.0,81,0.00,,,0.00,VWS V13.01,2013-07-15 12:12:00,
2013-07-15 07:17:00,64.4,58.5,0.00,SSE,163,0.0,0.0,81,0.00,,,0.00,VWS V13.01,2013-07-15 12:17:00,
2013-07-15 07:22:00,64.8,58.8,0.00,SSE,163,0.0,0.0,81,0.00,,,0.00,VWS V13.01,2013-07-15 12:22:00,
2013-07-15 07:27:00,65.1,59.2,0.00,SSE,163,0.0,0.0,81,0.00,,,0.00,VWS V13.01,2013-07-15 12:27:00,
2013-07-15 07:32:00,65.1,59.2,0.00,SSE,163,0.0,0.0,81,0.00,,,0.00,VWS V13.01,2013-07-15 12:32:00,
2013-07-15 07:37:00,65.5,59.5,0.00,SSE,163,0.0,0.0,81,0.00,,,0.00,VWS V13.01,2013-07-15 12:37:00,
2013-07-15 07:42:00,66.0,60.0,0.00,SSE,163,0.0,0.0,81,0.00,,,0.00,VWS V13.01,2013-07-15 12:42:00,
2013-07-15 07:47:00,66.7,60.7,0.00,SSE,163,0.0,0.0,81,0.00,,,0.00,VWS V13.01,2013-07-15 12:47:00,
2013-07-15 07:52:00,67.3,61.3,0.00,SSE,163,0.0,0.0,81,0.00,,,0.00,VWS V13.01,2013-07-15 12:52:00,
2013-07-15 07:57:00,68.0,62.0,0.00,SSE,163,0.0,0.0,81,0.00,,,0.00,VWS V13.01,2013-07-15 12:57:00,
2013-07-15 08:02:00,68.7,62.7,0.00,SSE,163,0.0,0.0,81,0.00,,,0.00,VWS V13.01,2013-07-15 13:02:00,
2013-07-15 08:07:00,69.4,63.4,0.00,SSE,163,0.0,0.0,81,0.00,,,0.00,VWS V13.01,2013-07-15 13:07:00,
2013-07-15 08:12:00,70.2,64.1,0.00,SSE,163,0.0,0.0,81,0.00,,,0.00,VWS V13.01,2013-07-15 13:12:00,
2013-07-15 08:17:00,70.7,64.6,0.00,SSE,163,0.0,0.0,81,0.00,,,0.00,VWS V13.01,2013-07-15 13:17:00,
2013-07-15 08:22:00,71.2,65.1,0.00,SSE,163,0.0,0.0,81,0.00,,,0.00,VWS V13.01,2013-07-15 13:22:00,
2013-07-15 08:27:00,71.6,65.1,0.00,SSE,163,0.0,0.0,80,0.00,,,0.00,VWS V13.01,2013-07-15 13:27:00,
2013-07-15 08:32:00,72.3,65.8,0.00,SSE,163,0.0,0.0,80,0.00,,,0.00,VWS V13.01,2013-07-15 13:32:00,
2013-07-15 08:37:00,72.3,65.1,0.00,SSE,154,0.0,0.0,78,0.00,,,0.00,VWS V13.01,2013-07-15 13:37:00,
2013-07-15 08:42:00,72.7,60.2,0.00,SSE,160,3.1,4.9,65,0.00,,,0.00,VWS V13.01,2013-07-15 13:42:00,
2013-07-15 08:47:00,73.6,56.4,0.00,SSE,162,4.0,4.9,55,0.00,,,0.00,VWS V13.01,2013-07-15 13:47:00,
2013-07-15 08:52:00,74.1,52.6,0.00,South,180,3.1,4.5,47,0.00,,,0.00,VWS V13.01,2013-07-15 13:52:00,
2013-07-15 08:57:00,74.5,51.8,0.00,SE,144,3.6,4.0,45,0.00,,,0.00,VWS V13.01,2013-07-15 13:57:00,
2013-07-15 09:02:00,74.7,50.7,0.00,SSE,147,5.4,5.8,43,0.00,,,0.00,VWS V13.01,2013-07-15 14:02:00,
2013-07-15 09:07:00,74.8,51.5,0.00,South,171,5.4,5.4,44,0.00,,,0.00,VWS V13.01,2013-07-15 14:07:00,
2013-07-15 09:12:00,75.0,51.0,0.00,South,172,5.4,5.4,43,0.00,,,0.00,VWS V13.01,2013-07-15 14:12:00,
2013-07-15 09:17:00,75.6,52.8,0.00,South,176,0.0,2.2,45,0.00,,,0.00,VWS V13.01,2013-07-15 14:17:00,
2013-07-15 09:22:00,75.9,50.5,0.00,SSE,155,5.4,5.4,41,0.00,,,0.00,VWS V13.01,2013-07-15 14:22:00,
2013-07-15 09:27:00,76.1,50.7,0.00,SSE,167,3.6,4.0,41,0.00,,,0.00,VWS V13.01,2013-07-15 14:27:00,
2013-07-15 09:32:00,76.5,49.7,0.00,South,175,3.1,4.9,39,0.00,,,0.00,VWS V13.01,2013-07-15 14:32:00,
2013-07-15 09:37:00,76.6,50.5,0.00,SSE,160,3.6,4.0,40,0.00,,,0.00,VWS V13.01,2013-07-15 14:37:00,
2013-07-15 09:42:00,76.8,48.6,0.00,SSW,200,4.0,5.4,37,0.00,,,0.00,VWS V13.01,2013-07-15 14:42:00,
2013-07-15 09:47:00,77.2,48.2,0.00,South,184,4.9,6.3,36,0.00,,,0.00,VWS V13.01,2013-07-15 14:47:00,
2013-07-15 09:52:00,77.0,48.0,0.00,South,177,4.9,5.4,36,0.00,,,0.00,VWS V13.01,2013-07-15 14:52:00,
2013-07-15 09:57:00,77.2,48.2,0.00,South,182,3.1,6.3,36,0.00,,,0.00,VWS V13.01,2013-07-15 14:57:00,
2013-07-15 10:02:00,77.5,48.5,0.00,South,190,2.7,3.6,36,0.00,,,0.00,VWS V13.01,2013-07-15 15:02:00,
2013-07-15 10:07:00,77.9,45.7,0.00,South,175,4.5,6.3,32,0.00,,,0.00,VWS V13.01,2013-07-15 15:07:00,
2013-07-15 10:13:00,78.1,46.7,0.00,South,182,4.9,4.9,33,0.00,,,0.00,VWS V13.01,2013-07-15 15:13:00,
2013-07-15 10:18:00,78.1,46.7,0.00,SE,138,4.0,4.0,33,0.00,,,0.00,VWS V13.01,2013-07-15 15:18:00,
2013-07-15 10:23:00,78.4,47.0,0.00,South,182,3.6,3.6,33,0.00,,,0.00,VWS V13.01,2013-07-15 15:23:00,
2013-07-15 10:28:00,78.6,47.1,0.00,South,181,3.1,3.6,33,0.00,,,0.00,VWS V13.01,2013-07-15 15:28:00,
2013-07-15 10:33:00,78.8,47.3,0.00,South,184,6.3,6.3,33,0.00,,,0.00,VWS V13.01,2013-07-15 15:33:00,
2013-07-15 10:38:00,78.6,46.3,0.00,South,190,2.7,5.4,32,0.00,,,0.00,VWS V13.01,2013-07-15 15:38:00,
2013-07-15 10:43:00,78.8,45.6,0.00,SSE,153,4.0,4.9,31,0.00,,,0.00,VWS V13.01,2013-07-15 15:43:00,
2013-07-15 10:48:00,79.3,46.1,0.00,SSE,149,3.1,5.4,31,0.00,,,0.00,VWS V13.01,2013-07-15 15:48:00,
2013-07-15 10:53:00,79.7,46.4,0.00,South,176,3.6,3.6,31,0.00,,,0.00,VWS V13.01,2013-07-15 15:53:00,
2013-07-15 10:58:00,79.7,46.4,0.00,SSW,201,5.4,5.4,31,0.00,,,0.00,VWS V13.01,2013-07-15 15:58:00,
2013-07-15 11:03:00,79.5,46.3,0.00,South,182,3.1,3.1,31,0.00,,,0.00,VWS V13.01,2013-07-15 16:03:00,
2013-07-15 11:08:00,79.5,45.4,0.00,SSW,194,3.6,7.2,30,0.00,,,0.00,VWS V13.01,2013-07-15 16:08:00,
2013-07-15 11:14:00,79.5,46.3,0.00,SW,220,4.0,4.9,31,0.00,,,0.00,VWS V13.01,2013-07-15 16:14:00,
2013-07-15 11:19:00,80.4,46.2,0.00,SSW,194,3.1,3.1,30,0.00,,,0.00,VWS V13.01,2013-07-15 16:19:00,
2013-07-15 11:24:00,80.8,45.6,0.00,SSE,152,3.6,4.0,29,0.00,,,0.00,VWS V13.01,2013-07-15 16:24:00,
2013-07-15 11:29:00,80.6,45.4,0.00,South,176,4.0,4.0,29,0.00,,,0.00,VWS V13.01,2013-07-15 16:29:00,
2013-07-15 11:34:00,80.6,46.3,0.00,SSE,153,2.7,2.7,30,0.00,,,0.00,VWS V13.01,2013-07-15 16:34:00,
2013-07-15 11:39:00,80.6,43.6,0.00,SSE,168,7.6,7.6,27,0.00,,,0.00,VWS V13.01,2013-07-15 16:39:00,
2013-07-15 11:44:00,80.6,44.5,0.00,South,176,5.8,5.8,28,0.00,,,0.00,VWS V13.01,2013-07-15 16:44:00,
2013-07-15 11:49:00,80.6,42.6,0.00,South,183,3.6,5.4,26,0.00,,,0.00,VWS V13.01,2013-07-15 16:49:00,
2013-07-15 11:54:00,80.8,44.7,0.00,South,179,3.6,5.8,28,0.00,,,0.00,VWS V13.01,2013-07-15 16:54:00,
2013-07-15 11:59:00,81.5,43.3,0.00,SSE,160,3.6,3.6,26,0.00,,,0.00,VWS V13.01,2013-07-15 16:59:00,
2013-07-15 12:04:00,81.5,42.3,0.00,South,175,5.8,5.8,25,0.00,,,0.00,VWS V13.01,2013-07-15 17:04:00,
2013-07-15 12:10:00,81.0,42.9,0.00,SSW,198,4.9,8.7,26,0.00,,,0.00,VWS V13.01,2013-07-15 17:10:00,
2013-07-15 12:15:00,81.5,43.3,0.00,SSW,196,0.0,0.0,26,0.00,,,0.00,VWS V13.01,2013-07-15 17:15:00,
2013-07-15 12:20:00,82.8,41.2,0.00,South,182,4.0,4.0,23,0.00,,,0.00,VWS V13.01,2013-07-15 17:20:00,
2013-07-15 12:25:00,82.2,42.9,0.00,South,176,5.8,5.8,25,0.00,,,0.00,VWS V13.01,2013-07-15 17:25:00,
2013-07-15 12:30:00,82.0,42.8,0.00,SW,223,0.0,0.0,25,0.00,,,0.00,VWS V13.01,2013-07-15 17:30:00,
2013-07-15 12:35:00,82.4,44.1,0.00,SSE,168,0.0,0.0,26,0.00,,,0.00,VWS V13.01,2013-07-15 17:35:00,
2013-07-15 12:40:00,83.5,41.8,0.00,SSE,166,4.0,4.0,23,0.00,,,0.00,VWS V13.01,2013-07-15 17:40:00,
2013-07-15 12:45:00,83.3,43.8,0.00,South,173,3.6,3.6,25,0.00,,,0.00,VWS V13.01,2013-07-15 17:45:00,
2013-07-15 12:51:00,83.1,42.6,0.00,South,185,3.6,3.6,24,0.00,,,0.00,VWS V13.01,2013-07-15 17:51:00,
2013-07-15 12:56:00,82.9,42.5,0.00,SSE,161,0.0,2.7,24,0.00,,,0.00,VWS V13.01,2013-07-15 17:56:00,
2013-07-15 13:02:00,83.8,43.2,0.00,South,191,0.0,0.0,24,0.00,,,0.00,VWS V13.01,2013-07-15 18:02:00,
2013-07-15 13:07:00,84.6,42.7,0.00,South,169,8.1,8.1,23,0.00,,,0.00,VWS V13.01,2013-07-15 18:07:00,
2013-07-15 13:12:00,83.7,43.1,0.00,SSE,162,4.0,4.0,24,0.00,,,0.00,VWS V13.01,2013-07-15 18:12:00,
2013-07-15 13:17:00,83.3,42.8,0.00,SW,224,0.0,0.0,24,0.00,,,0.00,VWS V13.01,2013-07-15 18:17:00,
2013-07-15 13:22:00,83.7,43.1,0.00,SW,220,0.0,0.0,24,0.00,,,0.00,VWS V13.01,2013-07-15 18:22:00,
2013-07-15 13:28:00,84.4,42.6,0.00,South,174,3.1,3.1,23,0.00,,,0.00,VWS V13.01,2013-07-15 18:28:00,
2013-07-15 13:33:00,83.8,42.1,0.00,SW,218,0.0,4.5,23,0.00,,,0.00,VWS V13.01,2013-07-15 18:33:00,
2013-07-15 13:38:00,83.8,43.2,0.00,WSW,238,2.7,5.4,24,0.00,,,0.00,VWS V13.01,2013-07-15 18:38:00,
2013-07-15 13:43:00,84.4,43.7,0.00,SE,146,0.0,0.0,24,0.00,,,0.00,VWS V13.01,2013-07-15 18:43:00,
2013-07-15 13:48:00,84.7,41.7,0.00,South,184,5.8,7.6,22,0.00,,,0.00,VWS V13.01,2013-07-15 18:48:00,
2013-07-15 13:53:00,83.5,40.7,0.00,South,187,5.4,6.3,22,0.00,,,0.00,VWS V13.01,2013-07-15 18:53:00,
2013-07-15 13:58:00,82.9,41.4,0.00,South,182,4.5,5.8,23,0.00,,,0.00,VWS V13.01,2013-07-15 18:58:00,
2013-07-15 14:03:00,83.3,42.8,0.00,SW,227,3.6,3.6,24,0.00,,,0.00,VWS V13.01,2013-07-15 19:03:00,
2013-07-15 14:08:00,83.8,42.1,0.00,South,170,2.7,4.0,23,0.00,,,0.00,VWS V13.01,2013-07-15 19:08:00,
2013-07-15 14:13:00,84.4,42.6,0.00,WSW,242,0.0,0.0,23,0.00,,,0.00,VWS V13.01,2013-07-15 19:13:00,
2013-07-15 14:18:00,85.6,43.6,0.00,SW,232,0.0,0.0,23,0.00,,,0.00,VWS V13.01,2013-07-15 19:18:00,
2013-07-15 14:23:00,86.4,43.1,0.00,SW,232,0.0,0.0,22,0.00,,,0.00,VWS V13.01,2013-07-15 19:23:00,
2013-07-15 14:28:00,86.7,42.2,0.00,SSE,168,3.6,4.0,21,0.00,,,0.00,VWS V13.01,2013-07-15 19:28:00,
2013-07-15 14:33:00,85.6,42.5,0.00,South,178,2.7,3.1,22,0.00,,,0.00,VWS V13.01,2013-07-15 19:33:00,
2013-07-15 14:38:00,85.1,42.0,0.00,SSW,196,3.6,4.0,22,0.00,,,0.00,VWS V13.01,2013-07-15 19:38:00,
2013-07-15 14:43:00,85.1,43.2,0.00,South,177,0.0,0.0,23,0.00,,,0.00,VWS V13.01,2013-07-15 19:43:00,
2013-07-15 14:48:00,85.3,42.2,0.00,South,174,4.0,4.0,22,0.00,,,0.00,VWS V13.01,2013-07-15 19:48:00,
2013-07-15 14:53:00,84.7,41.7,0.00,SSW,195,6.3,6.3,22,0.00,,,0.00,VWS V13.01,2013-07-15 19:53:00,
2013-07-15 14:58:00,84.2,41.3,0.00,SSW,195,6.3,6.3,22,0.00,,,0.00,VWS V13.01,2013-07-15 19:58:00,
2013-07-15 15:04:00,84.0,41.1,0.00,South,185,3.6,3.6,22,0.00,,,0.00,VWS V13.01,2013-07-15 20:04:00,
2013-07-15 15:09:00,84.0,42.3,0.00,West,279,0.0,2.2,23,0.00,,,0.00,VWS V13.01,2013-07-15 20:09:00,
2013-07-15 15:14:00,84.7,41.7,0.00,South,182,2.7,3.1,22,0.00,,,0.00,VWS V13.01,2013-07-15 20:14:00,
2013-07-15 15:19:00,84.7,42.9,0.00,SSW,197,5.8,5.8,23,0.00,,,0.00,VWS V13.01,2013-07-15 20:19:00,
2013-07-15 15:24:00,84.4,42.6,0.00,SSW,213,4.0,5.4,23,0.00,,,0.00,VWS V13.01,2013-07-15 20:24:00,
2013-07-15 15:29:00,84.4,41.4,0.00,SW,219,0.0,0.0,22,0.00,,,0.00,VWS V13.01,2013-07-15 20:29:00,
2013-07-15 15:34:00,84.4,42.6,0.00,SSW,193,2.7,2.7,23,0.00,,,0.00,VWS V13.01,2013-07-15 20:34:00,
2013-07-15 15:39:00,84.2,41.3,0.00,South,178,4.0,5.4,22,0.00,,,0.00,VWS V13.01,2013-07-15 20:39:00,
2013-07-15 15:44:00,84.2,42.4,0.00,SSE,159,0.0,3.6,23,0.00,,,0.00,VWS V13.01,2013-07-15 20:44:00,
2013-07-15 15:50:00,84.2,41.3,0.00,SSE,148,5.8,5.8,22,0.00,,,0.00,VWS V13.01,2013-07-15 20:50:00,
2013-07-15 15:55:00,84.2,42.4,0.00,SSW,201,3.6,5.4,23,0.00,,,0.00,VWS V13.01,2013-07-15 20:55:00,
2013-07-15 16:00:00,84.2,42.4,0.00,SSW,203,2.2,4.9,23,0.00,,,0.00,VWS V13.01,2013-07-15 21:00:00,
2013-07-15 16:05:00,84.4,41.4,0.00,South,191,10.1,10.1,22,0.00,,,0.00,VWS V13.01,2013-07-15 21:05:00,
2013-07-15 16:10:00,84.6,42.7,0.00,SW,227,0.0,0.0,23,0.00,,,0.00,VWS V13.01,2013-07-15 21:10:00,
2013-07-15 16:16:00,84.9,43.0,0.00,NW,313,0.0,0.0,23,0.00,,,0.00,VWS V13.01,2013-07-15 21:16:00,
2013-07-15 16:21:00,85.3,43.3,0.00,South,175,3.1,3.1,23,0.00,,,0.00,VWS V13.01,2013-07-15 21:21:00,
2013-07-15 16:26:00,84.7,41.7,0.00,SSW,193,3.6,4.9,22,0.00,,,0.00,VWS V13.01,2013-07-15 21:26:00,
2013-07-15 16:31:00,84.6,42.7,0.00,SSE,165,3.6,4.0,23,0.00,,,0.00,VWS V13.01,2013-07-15 21:31:00,
2013-07-15 16:36:00,84.4,42.6,0.00,South,175,0.0,2.7,23,0.00,,,0.00,VWS V13.01,2013-07-15 21:36:00,
2013-07-15 16:41:00,84.6,43.8,0.00,South,176,0.0,0.0,24,0.00,,,0.00,VWS V13.01,2013-07-15 21:41:00,
2013-07-15 16:46:00,84.6,43.8,0.00,South,176,0.0,0.0,24,0.00,,,0.00,VWS V13.01,2013-07-15 21:46:00,
2013-07-15 16:51:00,84.7,44.0,0.00,SE,142,0.0,0.0,24,0.00,,,0.00,VWS V13.01,2013-07-15 21:51:00,
2013-07-15 16:56:00,84.9,44.1,0.00,SW,230,0.0,0.0,24,0.00,,,0.00,VWS V13.01,2013-07-15 21:56:00,
2013-07-15 17:01:00,84.7,44.0,0.00,SW,230,0.0,0.0,24,0.00,,,0.00,VWS V13.01,2013-07-15 22:01:00,
2013-07-15 17:06:00,84.6,42.7,0.00,South,172,3.6,3.6,23,0.00,,,0.00,VWS V13.01,2013-07-15 22:06:00,
2013-07-15 17:11:00,84.4,42.6,0.00,SSE,168,0.0,0.0,23,0.00,,,0.00,VWS V13.01,2013-07-15 22:11:00,
2013-07-15 17:16:00,84.4,43.7,0.00,West,265,0.0,0.0,24,0.00,,,0.00,VWS V13.01,2013-07-15 22:16:00,
2013-07-15 17:21:00,84.6,43.8,0.00,SW,228,0.0,0.0,24,0.00,,,0.00,VWS V13.01,2013-07-15 22:21:00,
2013-07-15 17:27:00,84.7,44.0,0.00,SW,228,0.0,0.0,24,0.00,,,0.00,VWS V13.01,2013-07-15 22:27:00,
2013-07-15 17:32:00,84.6,43.8,0.00,SSE,168,4.0,4.0,24,0.00,,,0.00,VWS V13.01,2013-07-15 22:32:00,
2013-07-15 17:37:00,84.6,43.8,0.00,West,278,3.1,3.1,24,0.00,,,0.00,VWS V13.01,2013-07-15 22:37:00,
2013-07-15 17:42:00,84.6,43.8,0.00,West,265,0.0,0.0,24,0.00,,,0.00,VWS V13.01,2013-07-15 22:42:00,
2013-07-15 17:47:00,84.7,44.0,0.00,West,265,0.0,0.0,24,0.00,,,0.00,VWS V13.01,2013-07-15 22:47:00,
2013-07-15 17:52:00,84.6,45.9,0.00,North,0,2.2,3.6,26,0.00,,,0.00,VWS V13.01,2013-07-15 22:52:00,
2013-07-15 17:58:00,84.2,45.6,0.00,North,0,0.0,0.0,26,0.00,,,0.00,VWS V13.01,2013-07-15 22:58:00,
2013-07-15 18:03:00,84.2,47.6,0.00,North,0,0.0,0.0,28,0.00,,,0.00,VWS V13.01,2013-07-15 23:03:00,
2013-07-15 18:08:00,84.2,46.6,0.00,North,0,0.0,0.0,27,0.00,,,0.00,VWS V13.01,2013-07-15 23:08:00,
2013-07-15 18:13:00,84.2,47.6,0.00,North,0,0.0,0.0,28,0.00,,,0.00,VWS V13.01,2013-07-15 23:13:00,
2013-07-15 18:18:00,84.0,48.4,0.00,North,0,0.0,0.0,29,0.00,,,0.00,VWS V13.01,2013-07-15 23:18:00,
2013-07-15 18:24:00,83.8,46.3,0.00,South,185,0.0,2.2,27,0.00,,,0.00,VWS V13.01,2013-07-15 23:24:00,
2013-07-15 18:29:00,84.0,47.4,0.00,WSW,242,0.0,0.0,28,0.00,,,0.00,VWS V13.01,2013-07-15 23:29:00,
2013-07-15 18:34:00,83.8,48.2,0.00,West,277,0.0,0.0,29,0.00,,,0.00,VWS V13.01,2013-07-15 23:34:00,
2013-07-15 18:39:00,83.5,47.9,0.00,West,277,0.0,0.0,29,0.00,,,0.00,VWS V13.01,2013-07-15 23:39:00,
2013-07-15 18:44:00,83.3,47.8,0.00,West,277,0.0,0.0,29,0.00,,,0.00,VWS V13.01,2013-07-15 23:44:00,
2013-07-15 18:49:00,83.1,48.5,0.00,West,277,0.0,0.0,30,0.00,,,0.00,VWS V13.01,2013-07-15 23:49:00,
2013-07-15 18:54:00,83.1,48.5,0.00,West,277,0.0,0.0,30,0.00,,,0.00,VWS V13.01,2013-07-15 23:54:00,
2013-07-15 18:59:00,82.9,48.3,0.00,West,277,0.0,0.0,30,0.00,,,0.00,VWS V13.01,2013-07-15 23:59:00,
2013-07-15 19:04:00,82.6,48.0,0.00,West,277,0.0,0.0,30,0.00,,,0.00,VWS V13.01,2013-07-16 00:04:00,
2013-07-15 19:10:00,82.2,48.6,0.00,West,277,0.0,0.0,31,0.00,,,0.00,VWS V13.01,2013-07-16 00:10:00,
2013-07-15 19:15:00,81.9,49.1,0.00,West,277,0.0,0.0,32,0.00,,,0.00,VWS V13.01,2013-07-16 00:15:00,
2013-07-15 19:20:00,81.7,49.0,0.00,West,277,0.0,0.0,32,0.00,,,0.00,VWS V13.01,2013-07-16 00:20:00,
2013-07-15 19:26:00,81.5,48.8,0.00,West,277,0.0,0.0,32,0.00,,,0.00,VWS V13.01,2013-07-16 00:26:00,
2013-07-15 19:31:00,81.1,48.5,0.00,West,277,0.0,0.0,32,0.00,,,0.00,VWS V13.01,2013-07-16 00:31:00,
2013-07-15 19:36:00,81.0,49.2,0.00,West,277,0.0,0.0,33,0.00,,,0.00,VWS V13.01,2013-07-16 00:36:00,
2013-07-15 19:41:00,80.6,48.9,0.00,West,277,0.0,0.0,33,0.00,,,0.00,VWS V13.01,2013-07-16 00:41:00,
2013-07-15 19:46:00,80.4,49.5,0.00,West,277,0.0,0.0,34,0.00,,,0.00,VWS V13.01,2013-07-16 00:46:00,
2013-07-15 19:51:00,80.2,50.1,0.00,West,277,0.0,0.0,35,0.00,,,0.00,VWS V13.01,2013-07-16 00:51:00,
2013-07-15 19:57:00,80.1,50.7,0.00,West,277,0.0,0.0,36,0.00,,,0.00,VWS V13.01,2013-07-16 00:57:00,
2013-07-15 20:02:00,79.9,50.6,0.00,West,277,0.0,0.0,36,0.00,,,0.00,VWS V13.01,2013-07-16 01:02:00,
2013-07-15 20:07:00,79.9,51.3,0.00,West,277,0.0,0.0,37,0.00,,,0.00,VWS V13.01,2013-07-16 01:07:00,
2013-07-15 20:12:00,79.5,51.7,0.00,West,277,0.0,0.0,38,0.00,,,0.00,VWS V13.01,2013-07-16 01:12:00,
2013-07-15 20:17:00,79.3,52.3,0.00,West,277,0.0,0.0,39,0.00,,,0.00,VWS V13.01,2013-07-16 01:17:00,
2013-07-15 20:22:00,79.2,52.8,0.00,West,277,0.0,0.0,40,0.00,,,0.00,VWS V13.01,2013-07-16 01:22:00,
2013-07-15 20:27:00,78.6,53.0,0.00,West,277,0.0,0.0,41,0.00,,,0.00,VWS V13.01,2013-07-16 01:27:00,
2013-07-15 20:32:00,78.1,53.8,0.00,West,277,0.0,0.0,43,0.00,,,0.00,VWS V13.01,2013-07-16 01:32:00,
2013-07-15 20:38:00,77.9,53.6,0.00,West,277,0.0,0.0,43,0.00,,,0.00,VWS V13.01,2013-07-16 01:38:00,
2013-07-15 20:43:00,77.9,54.3,0.00,West,277,0.0,0.0,44,0.00,,,0.00,VWS V13.01,2013-07-16 01:43:00,
2013-07-15 20:48:00,77.7,54.1,0.00,West,277,0.0,0.0,44,0.00,,,0.00,VWS V13.01,2013-07-16 01:48:00,
2013-07-15 20:53:00,77.7,54.7,0.00,West,277,0.0,0.0,45,0.00,,,0.00,VWS V13.01,2013-07-16 01:53:00,
2013-07-15 20:58:00,77.5,55.2,0.00,West,277,0.0,0.0,46,0.00,,,0.00,VWS V13.01,2013-07-16 01:58:00,
2013-07-15 21:03:00,77.5,55.2,0.00,West,277,0.0,0.0,46,0.00,,,0.00,VWS V13.01,2013-07-16 02:03:00,
2013-07-15 21:08:00,77.4,55.6,0.00,West,277,0.0,0.0,47,0.00,,,0.00,VWS V13.01,2013-07-16 02:08:00,
2013-07-15 21:13:00,77.4,55.6,0.00,West,277,0.0,0.0,47,0.00,,,0.00,VWS V13.01,2013-07-16 02:13:00,
2013-07-15 21:18:00,77.2,55.4,0.00,West,277,0.0,0.0,47,0.00,,,0.00,VWS V13.01,2013-07-16 02:18:00,
2013-07-15 21:23:00,77.0,55.2,0.00,West,277,0.0,0.0,47,0.00,,,0.00,VWS V13.01,2013-07-16 02:23:00,
2013-07-15 21:28:00,76.5,55.3,0.00,West,277,0.0,0.0,48,0.00,,,0.00,VWS V13.01,2013-07-16 02:28:00,
2013-07-15 21:33:00,76.1,55.6,0.00,West,277,0.0,0.0,49,0.00,,,0.00,VWS V13.01,2013-07-16 02:33:00,
2013-07-15 21:39:00,75.9,56.0,0.00,West,277,0.0,0.0,50,0.00,,,0.00,VWS V13.01,2013-07-16 02:39:00,
2013-07-15 21:44:00,75.6,55.6,0.00,West,277,0.0,0.0,50,0.00,,,0.00,VWS V13.01,2013-07-16 02:44:00,
2013-07-15 21:49:00,75.4,56.0,0.00,West,277,0.0,0.0,51,0.00,,,0.00,VWS V13.01,2013-07-16 02:49:00,
2013-07-15 21:54:00,75.4,56.0,0.00,West,277,0.0,0.0,51,0.00,,,0.00,VWS V13.01,2013-07-16 02:54:00,
2013-07-15 21:59:00,75.2,56.4,0.00,West,277,0.0,0.0,52,0.00,,,0.00,VWS V13.01,2013-07-16 02:59:00,
2013-07-15 22:04:00,75.2,56.4,0.00,West,277,0.0,0.0,52,0.00,,,0.00,VWS V13.01,2013-07-16 03:04:00,
2013-07-15 22:09:00,74.8,56.0,0.00,West,277,0.0,0.0,52,0.00,,,0.00,VWS V13.01,2013-07-16 03:09:00,
2013-07-15 22:14:00,74.7,55.9,0.00,West,277,0.0,0.0,52,0.00,,,0.00,VWS V13.01,2013-07-16 03:14:00,
2013-07-15 22:19:00,74.3,56.1,0.00,West,277,0.0,0.0,53,0.00,,,0.00,VWS V13.01,2013-07-16 03:19:00,
2013-07-15 22:25:00,73.9,56.3,0.00,West,277,0.0,0.0,54,0.00,,,0.00,VWS V13.01,2013-07-16 03:25:00,
2013-07-15 22:30:00,73.8,56.6,0.00,West,277,0.0,0.0,55,0.00,,,0.00,VWS V13.01,2013-07-16 03:30:00,
2013-07-15 22:35:00,73.6,56.4,0.00,West,277,0.0,0.0,55,0.00,,,0.00,VWS V13.01,2013-07-16 03:35:00,
2013-07-15 22:40:00,73.6,56.9,0.00,West,277,0.0,0.0,56,0.00,,,0.00,VWS V13.01,2013-07-16 03:40:00,
2013-07-15 22:45:00,73.6,56.9,0.00,West,277,0.0,0.0,56,0.00,,,0.00,VWS V13.01,2013-07-16 03:45:00,
2013-07-15 22:50:00,73.4,57.3,0.00,West,277,0.0,0.0,57,0.00,,,0.00,VWS V13.01,2013-07-16 03:50:00,
2013-07-15 22:55:00,73.2,57.1,0.00,West,277,0.0,0.0,57,0.00,,,0.00,VWS V13.01,2013-07-16 03:55:00,
2013-07-15 23:00:00,73.2,57.6,0.00,West,277,0.0,0.0,58,0.00,,,0.00,VWS V13.01,2013-07-16 04:00:00,
2013-07-15 23:01:00,73.2,57.6,0.00,West,277,0.0,0.0,58,0.00,,,0.00,VWS V13.01,2013-07-16 04:01:00,
2013-07-15 23:06:00,72.9,57.7,0.00,West,277,0.0,0.0,59,0.00,,,0.00,VWS V13.01,2013-07-16 04:06:00,
2013-07-15 23:11:00,72.5,57.8,0.00,West,277,0.0,0.0,60,0.00,,,0.00,VWS V13.01,2013-07-16 04:11:00,
2013-07-15 23:16:00,72.3,58.1,0.00,West,277,0.0,0.0,61,0.00,,,0.00,VWS V13.01,2013-07-16 04:16:00,
2013-07-15 23:21:00,72.3,58.6,0.00,West,277,0.0,0.0,62,0.00,,,0.00,VWS V13.01,2013-07-16 04:21:00,
2013-07-15 23:26:00,72.3,59.0,0.00,West,277,0.0,0.0,63,0.00,,,0.00,VWS V13.01,2013-07-16 04:26:00,
2013-07-15 23:31:00,72.3,59.5,0.00,West,277,0.0,0.0,64,0.00,,,0.00,VWS V13.01,2013-07-16 04:31:00,
2013-07-15 23:36:00,72.3,59.9,0.00,West,277,0.0,0.0,65,0.00,,,0.00,VWS V13.01,2013-07-16 04:36:00,
2013-07-15 23:41:00,72.3,60.3,0.00,West,277,0.0,0.0,66,0.00,,,0.00,VWS V13.01,2013-07-16 04:41:00,
2013-07-15 23:46:00,72.3,60.8,0.00,West,277,0.0,0.0,67,0.00,,,0.00,VWS V13.01,2013-07-16 04:46:00,
2013-07-15 23:51:00,72.5,61.3,0.00,West,277,0.0,0.0,68,0.00,,,0.00,VWS V13.01,2013-07-16 04:51:00,
2013-07-15 23:56:00,72.1,61.0,0.00,West,277,0.0,0.0,68,0.00,,,0.00,VWS V13.01,2013-07-16 04:56:00,